createdAt,value
2022-07-25T00:01:30.253Z,100255.63
2022-07-25T00:03:56.897Z,100250.00
2022-07-25T00:06:23.861Z,100249.63
2022-07-25T00:08:50.284Z,100247.03
2022-07-25T00:11:16.669Z,100244.84
2022-07-25T00:13:43.058Z,100239.72
2022-07-25T00:16:09.507Z,100232.19
2022-07-25T00:18:35.966Z,100238.19
2022-07-25T00:21:02.392Z,100227.19
2022-07-25T00:23:28.798Z,100227.75
2022-07-25T00:25:55.192Z,100229.38
2022-07-25T00:28:21.630Z,100230.72
2022-07-25T00:30:48.079Z,100227.63
2022-07-25T00:33:14.466Z,100232.75
2022-07-25T00:35:43.471Z,100225.28
2022-07-25T00:38:09.915Z,100225.28
2022-07-25T00:40:36.742Z,100225.78
2022-07-25T00:43:03.368Z,100223.84
2022-07-25T00:45:29.956Z,100223.03
2022-07-25T00:47:56.400Z,100218.34
2022-07-25T00:50:22.941Z,100221.09
2022-07-25T00:52:49.829Z,100216.72
2022-07-25T00:55:16.319Z,100211.94
2022-07-25T00:57:42.890Z,100214.16
2022-07-25T01:00:13.000Z,100207.84
2022-07-25T01:02:40.650Z,100207.41
2022-07-25T01:05:08.028Z,100204.94
2022-07-25T01:07:38.472Z,100198.91
2022-07-25T01:10:06.646Z,100207.50
2022-07-25T01:12:43.328Z,100197.63
2022-07-25T01:15:10.120Z,100193.63
2022-07-25T01:17:36.504Z,100189.38
2022-07-25T01:20:03.433Z,100183.00
2022-07-25T01:22:29.859Z,100179.69
2022-07-25T01:24:56.219Z,100178.50
2022-07-25T01:27:22.607Z,100183.78
2022-07-25T01:29:48.995Z,100185.25
2022-07-25T01:32:15.554Z,100180.91
2022-07-25T01:34:41.909Z,100179.53
2022-07-25T01:37:08.282Z,100180.81
2022-07-25T01:39:34.666Z,100179.25
2022-07-25T01:42:01.088Z,100175.25
2022-07-25T01:44:27.502Z,100175.31
2022-07-25T01:46:53.912Z,100175.19
2022-07-25T01:49:20.340Z,100168.94
2022-07-25T01:51:46.708Z,100159.41
2022-07-25T01:54:14.708Z,100159.16
2022-07-25T01:56:48.285Z,100149.25
2022-07-25T01:59:15.168Z,100151.56
2022-07-25T02:01:41.671Z,100154.59
2022-07-25T02:04:08.461Z,100154.59
2022-07-25T02:06:35.445Z,100148.09
2022-07-25T02:09:03.866Z,100150.97
2022-07-25T02:11:30.249Z,100139.25
2022-07-25T02:13:56.634Z,100140.53
2022-07-25T02:16:29.100Z,100137.78
2022-07-25T02:18:55.657Z,100128.69
2022-07-25T02:21:22.073Z,100128.69
2022-07-25T02:23:48.606Z,100120.72
2022-07-25T02:26:15.273Z,100116.66
2022-07-25T02:28:41.684Z,100119.56
2022-07-25T02:31:08.367Z,100114.63
2022-07-25T02:33:34.934Z,100110.84
2022-07-25T02:36:01.356Z,100118.38
2022-07-25T02:38:27.737Z,100110.84
2022-07-25T02:40:54.139Z,100105.16
2022-07-25T02:43:21.503Z,100106.16
2022-07-25T02:45:47.907Z,100104.13
2022-07-25T02:48:14.463Z,100106.09
2022-07-25T02:50:40.926Z,100114.25
2022-07-25T02:53:07.332Z,100111.44
2022-07-25T02:55:33.777Z,100108.59
2022-07-25T02:58:00.196Z,100107.00
2022-07-25T03:00:26.673Z,100101.78
2022-07-25T03:02:53.231Z,100108.16
2022-07-25T03:05:19.622Z,100098.38
2022-07-25T03:07:46.242Z,100099.63
2022-07-25T03:10:14.816Z,100098.91
2022-07-25T03:12:42.567Z,100100.16
2022-07-25T03:15:10.782Z,100100.25
2022-07-25T03:17:37.422Z,100100.25
2022-07-25T03:20:08.331Z,100097.91
2022-07-25T03:22:35.053Z,100096.16
2022-07-25T03:25:02.004Z,100100.44
2022-07-25T03:27:28.553Z,100092.28
2022-07-25T03:29:55.011Z,100086.41
2022-07-25T03:32:21.425Z,100083.31
2022-07-25T03:34:47.805Z,100083.75
2022-07-25T03:37:14.212Z,100074.69
2022-07-25T03:39:40.617Z,100072.75
2022-07-25T03:42:07.082Z,100072.81
2022-07-25T03:44:33.524Z,100070.50
2022-07-25T03:46:59.940Z,100061.19
2022-07-25T03:49:26.301Z,100060.91
2022-07-25T03:51:52.679Z,100059.44
2022-07-25T03:54:19.129Z,100055.13
2022-07-25T03:56:50.757Z,100043.81
2022-07-25T03:59:20.383Z,100048.28
2022-07-25T04:01:48.915Z,100046.28
2022-07-25T04:04:16.279Z,100038.91
2022-07-25T04:06:42.685Z,100040.47
2022-07-25T04:09:10.159Z,100034.34
2022-07-25T04:11:37.036Z,100030.53
2022-07-25T04:14:04.289Z,100029.78
2022-07-25T04:16:31.445Z,100023.19
2022-07-25T04:18:57.965Z,100020.50
2022-07-25T04:21:25.454Z,100020.56
2022-07-25T04:23:52.508Z,100008.78
2022-07-25T04:26:19.607Z,100010.28
2022-07-25T04:28:46.200Z,100015.56
2022-07-25T04:31:12.660Z,100016.06
2022-07-25T04:33:40.392Z,100008.28
2022-07-25T04:36:07.165Z,100001.75
2022-07-25T04:38:34.060Z,99995.91
2022-07-25T04:41:00.596Z,99996.06
2022-07-25T04:43:26.976Z,99993.34
2022-07-25T04:45:53.440Z,99997.91
2022-07-25T04:48:19.837Z,99994.97
2022-07-25T04:50:46.289Z,99999.88
2022-07-25T04:53:12.694Z,99996.84
2022-07-25T04:55:39.153Z,99989.97
2022-07-25T04:58:05.706Z,99983.97
2022-07-25T05:00:32.787Z,99987.41
2022-07-25T05:02:59.723Z,99978.38
2022-07-25T05:05:26.288Z,99971.03
2022-07-25T05:07:57.740Z,99974.34
2022-07-25T05:10:25.449Z,99965.00
2022-07-25T05:12:51.837Z,99974.66
2022-07-25T05:15:18.254Z,99972.50
2022-07-25T05:17:44.609Z,99968.78
2022-07-25T05:20:12.586Z,99968.97
2022-07-25T05:22:39.047Z,99960.75
2022-07-25T05:25:10.321Z,99964.44
2022-07-25T05:27:36.944Z,99968.84
2022-07-25T05:30:05.231Z,99961.41
2022-07-25T05:32:31.900Z,99963.00
2022-07-25T05:34:58.298Z,99961.09
2022-07-25T05:37:24.704Z,99956.72
2022-07-25T05:39:51.102Z,99953.47
2022-07-25T05:42:17.579Z,99957.41
2022-07-25T05:44:43.969Z,99953.09
2022-07-25T05:47:11.176Z,99950.34
2022-07-25T05:49:38.501Z,99954.66
2022-07-25T05:52:08.273Z,99945.50
2022-07-25T05:54:37.456Z,99950.94
2022-07-25T05:57:04.163Z,99947.66
2022-07-25T05:59:30.607Z,99937.22
2022-07-25T06:01:57.172Z,99942.69
2022-07-25T06:04:27.118Z,99941.56
2022-07-25T06:06:53.792Z,99932.00
2022-07-25T06:09:21.785Z,99937.03
2022-07-25T06:11:53.190Z,99938.41
2022-07-25T06:14:26.694Z,99929.19
2022-07-25T06:16:53.453Z,99930.44
2022-07-25T06:19:19.829Z,99922.50
2022-07-25T06:21:46.240Z,99921.78
2022-07-25T06:24:12.619Z,99920.53
2022-07-25T06:26:39.001Z,99916.88
2022-07-25T06:29:05.418Z,99922.03
2022-07-25T06:31:31.889Z,99913.97
2022-07-25T06:33:58.323Z,99914.66
2022-07-25T06:36:24.660Z,99914.47
2022-07-25T06:38:59.338Z,99910.50
2022-07-25T06:41:25.680Z,99909.63
2022-07-25T06:43:52.020Z,99907.03
2022-07-25T06:46:18.390Z,99901.69
2022-07-25T06:48:44.885Z,99905.97
2022-07-25T06:51:11.318Z,99899.59
2022-07-25T06:53:37.673Z,99903.81
2022-07-25T06:56:04.358Z,99903.28
2022-07-25T06:58:30.692Z,99900.44
2022-07-25T07:00:57.166Z,99903.38
2022-07-25T07:03:23.665Z,99899.63
2022-07-25T07:05:50.066Z,99895.72
2022-07-25T07:08:16.423Z,99888.72
2022-07-25T07:10:42.774Z,99897.06
2022-07-25T07:13:14.682Z,99888.75
2022-07-25T07:15:47.750Z,99892.16
2022-07-25T07:18:14.248Z,99890.25
2022-07-25T07:20:40.672Z,99887.69
2022-07-25T07:23:07.052Z,99882.25
2022-07-25T07:25:35.408Z,99879.94
2022-07-25T07:28:02.521Z,99876.81
2022-07-25T07:30:58.609Z,99881.47
2022-07-25T07:33:15.547Z,99878.78
2022-07-25T07:35:44.516Z,99876.81
2022-07-25T07:38:10.841Z,99877.84
2022-07-25T07:40:37.330Z,99870.56
2022-07-25T07:43:03.791Z,99861.16
2022-07-25T07:45:30.551Z,99862.34
2022-07-25T07:47:56.985Z,99859.22
2022-07-25T07:50:25.926Z,99860.66
2022-07-25T07:52:53.448Z,99853.59
2022-07-25T07:55:20.699Z,99856.66
2022-07-25T07:57:49.573Z,99853.50
2022-07-25T08:00:16.915Z,99847.75
2022-07-25T08:02:45.641Z,99848.97
2022-07-25T08:05:12.036Z,99843.69
2022-07-25T08:07:38.416Z,99837.00
2022-07-25T08:10:05.533Z,99833.59
2022-07-25T08:12:31.880Z,99834.72
2022-07-25T08:14:58.264Z,99838.88
2022-07-25T08:17:28.499Z,99834.09
2022-07-25T08:19:55.201Z,99826.84
2022-07-25T08:22:21.525Z,99822.09
2022-07-25T08:24:47.889Z,99816.66
2022-07-25T08:27:14.301Z,99815.84
2022-07-25T08:29:40.644Z,99816.13
2022-07-25T08:32:06.986Z,99802.63
2022-07-25T08:34:33.311Z,99811.72
2022-07-25T08:36:59.778Z,99808.47
2022-07-25T08:39:26.112Z,99810.06
2022-07-25T08:41:52.570Z,99802.16
2022-07-25T08:44:20.291Z,99803.63
2022-07-25T08:46:47.938Z,99801.34
2022-07-25T08:49:14.454Z,99797.91
2022-07-25T08:51:40.837Z,99797.13
2022-07-25T08:54:07.793Z,99798.00
2022-07-25T08:56:34.554Z,99795.78
2022-07-25T08:59:00.895Z,99787.28
2022-07-25T09:01:30.362Z,99792.28
2022-07-25T09:04:01.758Z,99792.94
2022-07-25T09:06:28.174Z,99787.19
2022-07-25T09:08:59.568Z,99796.16
2022-07-25T09:11:34.037Z,99789.50
2022-07-25T09:14:01.352Z,99785.91
2022-07-25T09:16:35.661Z,99785.66
2022-07-25T09:19:07.982Z,99780.78
2022-07-25T09:21:34.330Z,99781.75
2022-07-25T09:24:18.892Z,99775.38
2022-07-25T09:26:52.912Z,99775.03
2022-07-25T09:29:27.773Z,99779.59
2022-07-25T09:31:55.371Z,99774.00
2022-07-25T09:34:32.217Z,99781.03
2022-07-25T09:36:58.572Z,99759.53
2022-07-25T09:39:45.937Z,99776.91
2022-07-25T09:42:26.543Z,99776.63
2022-07-25T09:45:01.902Z,99778.19
2022-07-25T09:47:28.877Z,99776.88
2022-07-25T09:49:55.755Z,99777.06
2022-07-25T09:52:22.366Z,99770.22
2022-07-25T09:54:49.353Z,99772.56
2022-07-25T09:57:16.185Z,99770.81
2022-07-25T09:59:42.836Z,99776.63
2022-07-25T10:02:32.992Z,99778.72
2022-07-25T10:05:23.568Z,99785.91
2022-07-25T10:07:54.099Z,99791.38
2022-07-25T10:10:36.327Z,99779.47
2022-07-25T10:13:10.533Z,99787.88
2022-07-25T10:15:46.300Z,99787.81
2022-07-25T10:18:14.435Z,99793.13
2022-07-25T10:20:40.965Z,99787.53
2022-07-25T10:23:21.204Z,99780.16
2022-07-25T10:25:58.916Z,99781.28
2022-07-25T10:28:36.257Z,99771.97
2022-07-25T10:31:02.714Z,99763.34
2022-07-25T10:33:29.087Z,99764.78
2022-07-25T10:36:05.830Z,99764.13
2022-07-25T10:38:33.222Z,99766.34
2022-07-25T10:41:04.374Z,99779.34
2022-07-25T10:43:37.248Z,99798.81
2022-07-25T10:46:11.850Z,99795.72
2022-07-25T10:48:38.497Z,99795.78
2022-07-25T10:51:12.925Z,99787.34
2022-07-25T10:53:44.627Z,99795.00
2022-07-25T10:56:20.026Z,99775.25
2022-07-25T10:58:53.429Z,99786.25
2022-07-25T11:01:25.552Z,99779.13
2022-07-25T11:03:54.243Z,99776.03
2022-07-25T11:06:38.142Z,99777.91
2022-07-25T11:09:18.000Z,99762.59
2022-07-25T11:11:48.770Z,99763.28
2022-07-25T11:14:19.111Z,99765.84
2022-07-25T11:16:46.968Z,99773.91
2022-07-25T11:19:19.436Z,99767.66
2022-07-25T11:21:51.962Z,99770.19
2022-07-25T11:24:18.523Z,99763.97
2022-07-25T11:26:52.787Z,99756.31
2022-07-25T11:29:23.005Z,99765.16
2022-07-25T11:32:09.910Z,99773.94
2022-07-25T11:34:38.561Z,99777.47
2022-07-25T11:37:09.055Z,99767.22
2022-07-25T11:39:37.964Z,99770.84
2022-07-25T11:42:12.272Z,99779.38
2022-07-25T11:44:41.879Z,99782.06
2022-07-25T11:47:25.516Z,99785.63
2022-07-25T11:49:53.906Z,99779.22
2022-07-25T11:52:32.340Z,99772.09
2022-07-25T11:55:12.527Z,99762.88
2022-07-25T11:57:41.712Z,99764.31
2022-07-25T12:00:15.413Z,99761.88
2022-07-25T12:02:41.992Z,99752.03
2022-07-25T12:05:11.181Z,99760.53
2022-07-25T12:07:45.862Z,99760.66
2022-07-25T12:10:19.111Z,99756.06
2022-07-25T12:12:54.422Z,99769.56
2022-07-25T12:15:24.837Z,99769.94
2022-07-25T12:17:52.791Z,99762.88
2022-07-25T12:20:22.242Z,99761.00
2022-07-25T12:22:50.620Z,99766.34
2022-07-25T12:25:17.304Z,99758.75
2022-07-25T12:27:44.345Z,99769.63
2022-07-25T12:30:11.469Z,99761.94
2022-07-25T12:32:38.364Z,99762.88
2022-07-25T12:35:06.946Z,99760.44
2022-07-25T12:37:33.386Z,99758.69
2022-07-25T12:40:00.864Z,99754.06
2022-07-25T12:42:27.347Z,99752.75
2022-07-25T12:44:53.729Z,99745.94
2022-07-25T12:47:20.076Z,99744.56
2022-07-25T12:49:47.089Z,99740.31
2022-07-25T12:52:13.671Z,99748.28
2022-07-25T12:54:40.106Z,99738.53
2022-07-25T12:57:06.639Z,99732.16
2022-07-25T12:59:33.473Z,99736.44
2022-07-25T13:01:59.992Z,99739.44
2022-07-25T13:04:26.587Z,99733.56
2022-07-25T13:06:55.418Z,99740.22
2022-07-25T13:09:22.301Z,99739.97
2022-07-25T13:11:48.777Z,99728.16
2022-07-25T13:14:15.241Z,99739.38
2022-07-25T13:16:46.042Z,99743.59
2022-07-25T13:19:13.648Z,99738.91
2022-07-25T13:21:40.206Z,99741.00
2022-07-25T13:24:07.310Z,99745.63
2022-07-25T13:26:33.967Z,99737.94
2022-07-25T13:29:00.654Z,99736.09
2022-07-25T13:31:27.946Z,99743.81
2022-07-25T13:33:54.841Z,99731.16
2022-07-25T13:36:21.231Z,99738.13
2022-07-25T13:38:47.620Z,99744.13
2022-07-25T13:41:14.444Z,99737.72
2022-07-25T13:43:41.053Z,99735.75
2022-07-25T13:46:07.511Z,99739.53
2022-07-25T13:48:34.458Z,99734.28
2022-07-25T13:51:01.497Z,99743.19
2022-07-25T13:53:30.290Z,99734.84
2022-07-25T13:55:57.892Z,99733.56
2022-07-25T13:58:24.790Z,99744.78
2022-07-25T14:00:51.193Z,99738.25
2022-07-25T14:03:17.592Z,99734.66
2022-07-25T14:05:44.064Z,99751.66
2022-07-25T14:08:10.432Z,99749.38
2022-07-25T14:10:36.793Z,99745.28
2022-07-25T14:13:03.119Z,99756.97
2022-07-25T14:15:29.714Z,99761.81
2022-07-25T14:17:56.107Z,99759.63
2022-07-25T14:20:22.579Z,99755.50
2022-07-25T14:22:48.934Z,99758.31
2022-07-25T14:25:15.400Z,99763.69
2022-07-25T14:27:41.997Z,99765.94
2022-07-25T14:30:09.347Z,99762.72
2022-07-25T14:32:36.441Z,99760.88
2022-07-25T14:35:03.591Z,99762.63
2022-07-25T14:37:29.940Z,99756.03
2022-07-25T14:39:56.303Z,99747.84
2022-07-25T14:42:22.665Z,99753.16
2022-07-25T14:44:48.995Z,99764.56
2022-07-25T14:47:15.528Z,99762.72
2022-07-25T14:49:42.177Z,99762.84
2022-07-25T14:52:08.544Z,99765.25
2022-07-25T14:54:34.948Z,99771.84
2022-07-25T14:57:02.123Z,99766.00
2022-07-25T14:59:28.484Z,99762.91
2022-07-25T15:01:54.830Z,99771.88
2022-07-25T15:04:21.274Z,99765.38
2022-07-25T15:06:48.472Z,99780.66
2022-07-25T15:09:14.919Z,99781.91
2022-07-25T15:11:41.248Z,99779.81
2022-07-25T15:14:07.625Z,99786.06
2022-07-25T15:16:34.106Z,99796.50
2022-07-25T15:19:17.118Z,99793.75
2022-07-25T15:21:46.925Z,99792.59
2022-07-25T15:24:14.077Z,99793.53
2022-07-25T15:26:40.578Z,99793.78
2022-07-25T15:29:08.683Z,99789.66
2022-07-25T15:31:38.126Z,99788.19
2022-07-25T15:34:04.619Z,99786.03
2022-07-25T15:36:30.996Z,99785.88
2022-07-25T15:38:57.347Z,99797.69
2022-07-25T15:41:23.745Z,99792.16
2022-07-25T15:43:50.175Z,99797.91
2022-07-25T15:46:16.719Z,99812.63
2022-07-25T15:48:43.680Z,99805.41
2022-07-25T15:51:10.748Z,99831.19
2022-07-25T15:53:37.235Z,99821.38
2022-07-25T15:56:03.839Z,99821.28
2022-07-25T15:58:30.190Z,99828.72
2022-07-25T16:00:56.653Z,99837.06
2022-07-25T16:03:23.163Z,99834.69
2022-07-25T16:05:49.877Z,99836.28
2022-07-25T16:08:16.476Z,99834.34
2022-07-25T16:10:42.832Z,99838.91
2022-07-25T16:13:09.195Z,99833.34
2022-07-25T16:15:35.575Z,99842.50
2022-07-25T16:18:02.911Z,99853.72
2022-07-25T16:20:31.010Z,99841.06
2022-07-25T16:22:57.365Z,99848.47
2022-07-25T16:25:24.529Z,99845.72
2022-07-25T16:27:51.615Z,99858.13
2022-07-25T16:30:18.894Z,99864.69
2022-07-25T16:32:45.263Z,99866.56
2022-07-25T16:35:11.607Z,99870.00
2022-07-25T16:37:38.231Z,99882.69
2022-07-25T16:40:05.142Z,99886.88
2022-07-25T16:42:31.485Z,99891.19
2022-07-25T16:44:57.889Z,99891.19
2022-07-25T16:47:24.247Z,99892.03
2022-07-25T16:49:50.634Z,99896.69
2022-07-25T16:52:17.087Z,99887.78
2022-07-25T16:54:43.760Z,99896.22
2022-07-25T16:57:10.202Z,99897.09
2022-07-25T16:59:36.606Z,99901.63
2022-07-25T17:02:03.194Z,99896.50
2022-07-25T17:04:29.679Z,99904.59
2022-07-25T17:06:56.106Z,99911.59
2022-07-25T17:09:22.653Z,99926.31
2022-07-25T17:11:49.031Z,99918.38
2022-07-25T17:14:15.397Z,99927.50
2022-07-25T17:16:41.731Z,99927.50
2022-07-25T17:19:08.523Z,99924.06
2022-07-25T17:21:35.069Z,99924.47
2022-07-25T17:24:01.546Z,99930.34
2022-07-25T17:26:27.976Z,99928.38
2022-07-25T17:28:54.473Z,99915.16
2022-07-25T17:31:22.182Z,99928.47
2022-07-25T17:33:48.540Z,99918.53
2022-07-25T17:36:14.933Z,99922.81
2022-07-25T17:38:41.424Z,99926.03
2022-07-25T17:41:07.833Z,99922.41
2022-07-25T17:43:34.962Z,99931.69
2022-07-25T17:46:01.452Z,99935.38
2022-07-25T17:48:27.894Z,99937.78
2022-07-25T17:50:54.311Z,99933.56
2022-07-25T17:53:20.650Z,99935.47
2022-07-25T17:55:47.087Z,99944.16
2022-07-25T17:58:13.848Z,99931.88
2022-07-25T18:00:40.298Z,99928.59
2022-07-25T18:03:06.843Z,99941.31
2022-07-25T18:05:33.294Z,99940.16
2022-07-25T18:07:59.725Z,99936.34
2022-07-25T18:10:26.104Z,99946.34
2022-07-25T18:12:52.464Z,99947.97
2022-07-25T18:15:18.867Z,99939.31
2022-07-25T18:17:46.222Z,99944.47
2022-07-25T18:20:14.180Z,99949.59
2022-07-25T18:22:40.848Z,99953.53
2022-07-25T18:25:08.649Z,99952.75
2022-07-25T18:27:35.025Z,99965.81
2022-07-25T18:30:02.364Z,99965.81
2022-07-25T18:32:28.718Z,99961.06
2022-07-25T18:34:55.116Z,99959.50
2022-07-25T18:37:21.569Z,99965.03
2022-07-25T18:39:47.929Z,99959.91
2022-07-25T18:42:14.314Z,99969.00
2022-07-25T18:44:40.746Z,99969.78
2022-07-25T18:47:07.550Z,99983.28
2022-07-25T18:49:33.942Z,99976.53
2022-07-25T18:52:00.334Z,99977.34
2022-07-25T18:54:26.720Z,99979.69
2022-07-25T18:56:53.122Z,99982.47
2022-07-25T18:59:19.705Z,99977.72
2022-07-25T19:01:46.126Z,99981.22
2022-07-25T19:04:12.604Z,99986.03
2022-07-25T19:06:39.050Z,99989.53
2022-07-25T19:09:05.434Z,99991.09
2022-07-25T19:11:31.802Z,100001.75
2022-07-25T19:13:58.174Z,99999.28
2022-07-25T19:16:24.693Z,100000.94
2022-07-25T19:18:51.179Z,100002.41
2022-07-25T19:21:17.589Z,100001.56
2022-07-25T19:23:50.130Z,100003.53
2022-07-25T19:26:17.904Z,100013.34
2022-07-25T19:28:44.426Z,100018.88
2022-07-25T19:31:10.933Z,100030.78
2022-07-25T19:33:37.425Z,100027.94
2022-07-25T19:36:04.680Z,100033.81
2022-07-25T19:38:31.167Z,100034.88
2022-07-25T19:40:57.643Z,100047.22
2022-07-25T19:43:24.042Z,100049.53
2022-07-25T19:45:50.529Z,100047.88
2022-07-25T19:48:16.941Z,100049.47
2022-07-25T19:51:33.462Z,100054.09
2022-07-25T19:54:22.179Z,100058.88
2022-07-25T19:56:48.640Z,100057.72
2022-07-25T19:59:14.991Z,100061.97
2022-07-25T20:01:41.499Z,100063.56
2022-07-25T20:04:08.232Z,100060.81
2022-07-25T20:06:35.501Z,100062.00
2022-07-25T20:09:02.435Z,100071.47
2022-07-25T20:11:28.869Z,100071.09
2022-07-25T20:13:55.237Z,100070.25
2022-07-25T20:16:21.743Z,100071.59
2022-07-25T20:18:48.150Z,100078.19
2022-07-25T20:21:14.632Z,100080.53
2022-07-25T20:23:40.990Z,100078.53
2022-07-25T20:26:07.392Z,100088.91
2022-07-25T20:28:34.320Z,100088.03
2022-07-25T20:31:00.955Z,100090.16
2022-07-25T20:33:27.988Z,100095.44
2022-07-25T20:35:55.085Z,100102.88
2022-07-25T20:38:22.879Z,100103.09
2022-07-25T20:40:50.625Z,100112.06
2022-07-25T20:43:17.450Z,100113.50
2022-07-25T20:45:44.306Z,100113.94
2022-07-25T20:48:10.764Z,100126.78
2022-07-25T20:50:38.270Z,100123.91
2022-07-25T20:53:06.252Z,100110.13
2022-07-25T20:55:34.009Z,100111.66
2022-07-25T20:58:01.098Z,100113.94
2022-07-25T21:00:28.114Z,100121.28
2022-07-25T21:02:54.995Z,100120.09
2022-07-25T21:05:22.017Z,100122.66
2022-07-25T21:07:48.557Z,100119.97
2022-07-25T21:10:15.085Z,100121.94
2022-07-25T21:12:41.520Z,100124.91
2022-07-25T21:15:08.578Z,100137.03
2022-07-25T21:17:34.995Z,100124.56
2022-07-25T21:20:01.411Z,100132.97
2022-07-25T21:22:27.817Z,100137.00
2022-07-25T21:24:54.134Z,100141.28
2022-07-25T21:27:20.459Z,100135.50
2022-07-25T21:29:47.051Z,100136.63
2022-07-25T21:32:13.635Z,100139.41
2022-07-25T21:34:41.694Z,100140.59
2022-07-25T21:37:08.206Z,100137.41
2022-07-25T21:39:34.900Z,100148.28
2022-07-25T21:42:01.296Z,100142.28
2022-07-25T21:44:27.709Z,100148.88
2022-07-25T21:46:54.100Z,100153.91
2022-07-25T21:49:25.477Z,100149.88
2022-07-25T21:52:06.937Z,100149.69
2022-07-25T21:54:33.312Z,100153.94
2022-07-25T21:56:59.658Z,100164.09
2022-07-25T21:59:26.024Z,100161.38
2022-07-25T22:01:52.411Z,100161.38
2022-07-25T22:04:21.961Z,100162.06
2022-07-25T22:06:48.351Z,100166.63
2022-07-25T22:09:14.692Z,100169.25
2022-07-25T22:11:46.348Z,100167.94
2022-07-25T22:14:13.797Z,100169.81
2022-07-25T22:16:40.238Z,100170.75
2022-07-25T22:19:07.136Z,100175.19
2022-07-25T22:21:33.704Z,100172.84
2022-07-25T22:24:00.642Z,100171.53
2022-07-25T22:26:27.017Z,100184.47
2022-07-25T22:28:53.387Z,100178.16
2022-07-25T22:31:19.742Z,100177.44
2022-07-25T22:33:46.152Z,100173.53
2022-07-25T22:36:12.605Z,100183.81
2022-07-25T22:38:38.931Z,100175.25
2022-07-25T22:41:05.623Z,100185.41
2022-07-25T22:43:56.691Z,100179.78
2022-07-25T22:46:18.414Z,100186.50
2022-07-25T22:48:45.107Z,100183.91
2022-07-25T22:51:11.549Z,100180.91
2022-07-25T22:53:37.901Z,100177.09
2022-07-25T22:56:04.522Z,100182.22
2022-07-25T22:58:30.851Z,100184.06
2022-07-25T23:00:57.292Z,100195.19
2022-07-25T23:03:23.753Z,100197.31
2022-07-25T23:05:50.188Z,100192.19
2022-07-25T23:08:20.323Z,100192.09
2022-07-25T23:10:46.871Z,100196.59
2022-07-25T23:13:13.257Z,100201.00
2022-07-25T23:15:50.332Z,100198.47
2022-07-25T23:18:17.896Z,100193.66
2022-07-25T23:20:44.303Z,100194.41
2022-07-25T23:23:10.650Z,100199.66
2022-07-25T23:25:36.974Z,100197.88
2022-07-25T23:28:03.443Z,100195.63
2022-07-25T23:30:29.853Z,100194.50
2022-07-25T23:32:56.227Z,100204.13
2022-07-25T23:35:22.681Z,100195.88
2022-07-25T23:37:49.059Z,100201.59
2022-07-25T23:40:15.479Z,100210.38
2022-07-25T23:42:42.663Z,100202.97
2022-07-25T23:45:09.920Z,100208.97
2022-07-25T23:47:39.696Z,100197.75
2022-07-25T23:50:08.267Z,100204.63
2022-07-25T23:52:34.590Z,100197.16
2022-07-25T23:55:00.945Z,100196.44
2022-07-25T23:57:27.298Z,100197.63
2022-07-25T23:59:53.749Z,100203.13
